createdAt,value
2024-04-21T00:01:31.968Z,0.82
2024-04-21T00:06:34.044Z,1.00
2024-04-21T00:11:36.114Z,0.95
2024-04-21T00:16:38.502Z,1.65
2024-04-21T00:21:40.558Z,1.02
2024-04-21T00:26:42.644Z,1.40
2024-04-21T00:31:44.615Z,0.82
2024-04-21T00:36:46.623Z,0.85
2024-04-21T00:41:48.657Z,0.50
2024-04-21T00:46:51.351Z,1.38
2024-04-21T00:51:53.936Z,2.17
2024-04-21T00:56:56.305Z,1.23
2024-04-21T01:01:58.696Z,1.02
2024-04-21T01:07:00.867Z,1.25
2024-04-21T01:12:03.015Z,0.77
2024-04-21T01:17:05.340Z,1.10
2024-04-21T01:22:07.648Z,1.13
2024-04-21T01:27:09.645Z,0.90
2024-04-21T01:32:24.210Z,0.93
2024-04-21T01:37:26.247Z,0.70
2024-04-21T01:42:28.286Z,1.05
2024-04-21T01:47:30.306Z,1.10
2024-04-21T01:52:32.350Z,1.13
2024-04-21T01:57:35.451Z,0.75
2024-04-21T02:02:37.588Z,1.05
2024-04-21T02:07:39.643Z,1.10
2024-04-21T02:12:41.642Z,1.30
2024-04-21T02:17:43.805Z,1.63
2024-04-21T02:22:45.839Z,0.90
2024-04-21T02:27:47.891Z,1.08
2024-04-21T02:32:50.045Z,1.33
2024-04-21T02:37:52.067Z,1.08
2024-04-21T02:42:54.067Z,0.90
2024-04-21T02:47:56.209Z,1.45
2024-04-21T02:52:58.258Z,1.00
2024-04-21T02:58:00.611Z,1.77
2024-04-21T03:03:02.637Z,1.30
2024-04-21T03:08:05.055Z,1.23
2024-04-21T03:13:07.084Z,1.20
2024-04-21T03:18:09.165Z,1.10
2024-04-21T03:23:11.305Z,0.77
2024-04-21T03:28:13.388Z,1.42
2024-04-21T03:33:15.535Z,0.88
2024-04-21T03:38:17.572Z,1.50
2024-04-21T03:43:19.658Z,0.90
2024-04-21T03:48:22.705Z,1.15
2024-04-21T03:53:25.589Z,1.48
2024-04-21T03:58:28.029Z,0.90
2024-04-21T04:03:30.651Z,0.65
2024-04-21T04:08:33.697Z,0.80
2024-04-21T04:13:35.908Z,0.88
2024-04-21T04:18:37.981Z,0.75
2024-04-21T04:23:40.062Z,0.90
2024-04-21T04:28:42.109Z,0.82
2024-04-21T04:33:44.170Z,0.63
2024-04-21T04:38:46.229Z,0.90
2024-04-21T04:43:48.190Z,0.70
2024-04-21T04:48:50.258Z,0.70
2024-04-21T04:53:52.224Z,1.23
2024-04-21T04:58:54.596Z,0.82
2024-04-21T05:03:56.648Z,1.00
2024-04-21T05:08:58.680Z,0.73
2024-04-21T05:14:00.770Z,0.60
2024-04-21T05:19:02.863Z,0.65
2024-04-21T05:24:05.167Z,0.50
2024-04-21T05:29:07.294Z,0.57
2024-04-21T05:34:09.313Z,0.82
2024-04-21T05:39:12.464Z,0.63
2024-04-21T05:44:14.564Z,0.75
2024-04-21T05:49:16.614Z,1.00
2024-04-21T05:54:18.766Z,1.00
2024-04-21T05:59:20.975Z,0.73
2024-04-21T06:04:23.047Z,1.05
2024-04-21T06:09:25.205Z,0.70
2024-04-21T06:14:27.295Z,0.90
2024-04-21T06:19:30.808Z,0.90
2024-04-21T06:24:32.928Z,1.35
2024-04-21T06:29:34.950Z,1.02
2024-04-21T06:34:37.019Z,1.38
2024-04-21T06:39:38.993Z,1.20
2024-04-21T06:44:41.061Z,0.90
2024-04-21T06:49:43.096Z,1.33
2024-04-21T06:54:45.056Z,1.52
2024-04-21T06:59:47.203Z,1.20
2024-04-21T07:04:49.599Z,1.25
2024-04-21T07:09:51.629Z,1.80
2024-04-21T07:14:54.474Z,1.10
2024-04-21T07:19:56.449Z,1.17
2024-04-21T07:25:03.001Z,1.00
2024-04-21T07:30:09.678Z,1.67
2024-04-21T07:35:11.674Z,2.13
2024-04-21T07:40:15.632Z,0.93
2024-04-21T07:45:18.052Z,2.65
2024-04-21T07:50:20.072Z,1.92
2024-04-21T07:55:22.097Z,1.90
2024-04-21T08:00:24.066Z,3.53
2024-04-21T08:05:26.040Z,3.40
2024-04-21T08:10:28.117Z,4.28
2024-04-21T08:15:32.821Z,2.40
2024-04-21T08:20:38.646Z,2.63
2024-04-21T08:25:41.129Z,2.30
2024-04-21T08:30:45.250Z,1.50
2024-04-21T08:35:59.608Z,2.97
2024-04-21T08:41:12.836Z,2.00
2024-04-21T08:46:14.982Z,1.80
2024-04-21T08:51:17.038Z,1.13
2024-04-21T08:56:23.040Z,1.90
2024-04-21T09:01:28.312Z,1.42
2024-04-21T09:06:31.851Z,2.05
2024-04-21T09:11:35.358Z,2.03
2024-04-21T09:16:37.447Z,1.00
2024-04-21T09:21:40.468Z,1.42
2024-04-21T09:26:43.903Z,2.67
2024-04-21T09:31:46.451Z,1.40
2024-04-21T09:36:49.286Z,1.85
2024-04-21T09:41:54.106Z,2.28
2024-04-21T09:46:57.778Z,1.60
2024-04-21T09:52:02.392Z,1.65
2024-04-21T09:57:17.605Z,1.40
2024-04-21T10:02:24.596Z,1.50
2024-04-21T10:07:28.078Z,1.60
2024-04-21T10:12:31.252Z,1.50
2024-04-21T10:17:34.417Z,1.20
2024-04-21T10:22:38.127Z,1.23
2024-04-21T10:27:40.145Z,1.27
2024-04-21T10:32:42.282Z,1.77
2024-04-21T10:37:46.464Z,1.50
2024-04-21T10:42:55.366Z,1.42
2024-04-21T10:47:57.540Z,1.85
2024-04-21T10:52:59.688Z,1.50
2024-04-21T10:58:03.663Z,1.30
2024-04-21T11:03:07.223Z,1.42
2024-04-21T11:08:09.825Z,1.58
2024-04-21T11:13:11.835Z,2.10
2024-04-21T11:18:14.929Z,1.73
2024-04-21T11:23:18.182Z,1.02
2024-04-21T11:28:20.497Z,1.20
2024-04-21T11:33:22.672Z,1.17
2024-04-21T11:38:25.376Z,1.42
2024-04-21T11:43:29.074Z,1.20
2024-04-21T11:48:36.057Z,1.35
2024-04-21T11:53:38.172Z,1.00
2024-04-21T11:58:40.169Z,1.10
2024-04-21T12:03:43.948Z,1.27
2024-04-21T12:08:49.792Z,2.00
2024-04-21T12:14:07.845Z,1.35
2024-04-21T12:19:11.132Z,1.20
2024-04-21T12:24:16.852Z,0.70
2024-04-21T12:29:19.218Z,0.90
2024-04-21T12:34:22.979Z,0.80
2024-04-21T12:39:28.585Z,0.55
2024-04-21T12:44:32.787Z,0.90
2024-04-21T12:49:36.229Z,1.95
2024-04-21T12:54:38.421Z,1.15
2024-04-21T12:59:44.931Z,0.80
2024-04-21T13:04:50.630Z,0.90
2024-04-21T13:09:54.295Z,0.90
2024-04-21T13:14:56.565Z,0.65
2024-04-21T13:19:58.870Z,1.10
2024-04-21T13:25:02.223Z,1.10
2024-04-21T13:30:06.608Z,1.35
2024-04-21T13:35:11.614Z,1.10
2024-04-21T13:40:14.507Z,1.50
2024-04-21T13:45:16.915Z,1.05
2024-04-21T13:50:21.631Z,0.52
2024-04-21T13:55:25.617Z,0.60
2024-04-21T14:00:28.571Z,0.88
2024-04-21T14:05:33.256Z,1.00
2024-04-21T14:10:36.358Z,0.68
2024-04-21T14:15:38.577Z,0.68
2024-04-21T14:20:42.396Z,1.33
2024-04-21T14:25:48.282Z,1.05
2024-04-21T14:30:50.540Z,1.10
2024-04-21T14:35:56.199Z,0.98
2024-04-21T14:40:58.587Z,1.35
2024-04-21T14:46:00.723Z,1.10
2024-04-21T14:51:06.326Z,1.10
2024-04-21T14:56:15.080Z,1.20
2024-04-21T15:01:20.350Z,1.05
2024-04-21T15:06:22.823Z,1.10
2024-04-21T15:11:26.515Z,1.08
2024-04-21T15:16:32.540Z,0.90
2024-04-21T15:21:36.297Z,2.30
2024-04-21T15:26:39.840Z,1.50
2024-04-21T15:31:42.253Z,1.20
2024-04-21T15:36:45.677Z,1.40
2024-04-21T15:41:48.079Z,1.35
2024-04-21T15:46:50.403Z,0.93
2024-04-21T15:51:52.586Z,0.90
2024-04-21T15:56:54.558Z,1.15
2024-04-21T16:01:56.630Z,1.17
2024-04-21T16:06:58.749Z,1.20
2024-04-21T16:12:00.774Z,0.68
2024-04-21T16:17:02.848Z,0.70
2024-04-21T16:22:05.080Z,0.85
2024-04-21T16:27:07.214Z,0.98
2024-04-21T16:32:09.217Z,0.80
2024-04-21T16:37:11.772Z,0.73
2024-04-21T16:42:14.380Z,1.02
2024-04-21T16:47:20.885Z,1.00
2024-04-21T16:52:23.338Z,1.20
2024-04-21T16:57:28.975Z,1.00
2024-04-21T17:02:32.029Z,1.02
2024-04-21T17:07:39.938Z,0.80
2024-04-21T17:12:42.030Z,0.85
2024-04-21T17:17:44.448Z,0.75
2024-04-21T17:22:47.439Z,4.88
2024-04-21T17:27:49.487Z,1.00
2024-04-21T17:32:52.106Z,3.78
2024-04-21T17:37:54.737Z,2.47
2024-04-21T17:42:56.973Z,1.13
2024-04-21T17:47:59.931Z,1.20
2024-04-21T17:53:02.407Z,1.27
2024-04-21T17:58:05.616Z,1.02
2024-04-21T18:03:07.756Z,2.00
2024-04-21T18:08:09.830Z,2.85
2024-04-21T18:13:15.044Z,2.75
2024-04-21T18:18:17.266Z,1.20
2024-04-21T18:23:19.335Z,1.17
2024-04-21T18:28:21.425Z,1.40
2024-04-21T18:33:23.639Z,1.15
2024-04-21T18:38:25.719Z,0.90
2024-04-21T18:43:31.194Z,0.63
2024-04-21T18:48:33.786Z,1.47
2024-04-21T18:53:35.809Z,1.30
2024-04-21T18:58:38.308Z,1.35
2024-04-21T19:03:40.974Z,2.20
2024-04-21T19:08:44.075Z,1.38
2024-04-21T19:13:50.379Z,1.35
2024-04-21T19:18:56.834Z,0.77
2024-04-21T19:29:04.419Z,1.48
2024-04-21T19:34:08.875Z,0.95
2024-04-21T19:39:13.677Z,1.35
2024-04-21T19:44:17.660Z,2.85
2024-04-21T19:49:19.829Z,1.67
2024-04-21T19:54:29.638Z,2.00
2024-04-21T19:59:36.200Z,5.20
2024-04-21T20:04:38.504Z,4.53
2024-04-21T20:09:41.315Z,8.70
2024-04-21T20:15:02.198Z,9.38
2024-04-21T20:20:05.368Z,1.80
2024-04-21T20:25:07.932Z,1.88
2024-04-21T20:30:10.599Z,1.15
2024-04-21T20:35:19.583Z,1.25
2024-04-21T20:40:25.475Z,1.27
2024-04-21T20:45:27.980Z,1.77
2024-04-21T20:50:35.188Z,1.40
2024-04-21T20:55:40.483Z,1.52
2024-04-21T21:00:55.397Z,1.88
2024-04-21T21:05:58.076Z,1.50
2024-04-21T21:11:03.241Z,1.60
2024-04-21T21:16:10.368Z,1.40
2024-04-21T21:21:12.744Z,1.60
2024-04-21T21:26:19.283Z,1.77
2024-04-21T21:31:22.833Z,1.73
2024-04-21T21:36:26.277Z,2.13
2024-04-21T21:41:29.579Z,1.98
2024-04-21T21:46:38.705Z,1.95
2024-04-21T21:51:41.545Z,1.90
2024-04-21T21:56:44.416Z,2.17
2024-04-21T22:01:47.830Z,2.22
2024-04-21T22:06:54.827Z,1.95
2024-04-21T22:11:57.884Z,2.53
2024-04-21T22:17:00.156Z,1.88
2024-04-21T22:22:02.419Z,2.30
2024-04-21T22:27:05.403Z,2.08
2024-04-21T22:32:10.293Z,1.98
2024-04-21T22:37:15.174Z,2.17
2024-04-21T22:42:17.990Z,2.33
2024-04-21T22:47:25.578Z,2.65
2024-04-21T22:52:27.659Z,2.33
2024-04-21T22:57:29.667Z,1.92
2024-04-21T23:02:31.803Z,2.20
2024-04-21T23:07:33.979Z,2.42
2024-04-21T23:12:36.091Z,2.22
2024-04-21T23:17:38.085Z,2.47
2024-04-21T23:22:40.074Z,2.25
2024-04-21T23:27:42.083Z,2.15
2024-04-21T23:32:44.193Z,2.35
2024-04-21T23:37:46.257Z,2.90
2024-04-21T23:42:48.553Z,2.60
2024-04-21T23:47:50.870Z,3.75
2024-04-21T23:52:53.023Z,2.50
2024-04-21T23:57:55.022Z,2.25
